Time;durP1;ratioP1;P1;durP2;ratioP2;P2;SDS_P1;SDS_P2;PMS_P1;PMS_P2;Temp;Humidity;BMP_temperature;BMP_pressure;BME280_temperature;BME280_humidity;BME280_pressure;Samples;Min_cycle;Max_cycle;Signal;HPM_P1;HPM_P2
2023/10/29 00:02:01;;;;;;;36.67;24.17;;;;;;;10.35;100.00;99722.31;5093996;28;20047;-44
2023/10/29 00:04:35;;;;;;;34.33;23.63;;;;;;;10.42;100.00;99731.59;5093768;28;20078;-45
2023/10/29 00:07:04;;;;;;;37.47;24.40;;;;;;;10.38;100.00;99733.63;5093187;28;20107;-44
2023/10/29 00:09:32;;;;;;;34.40;22.92;;;;;;;10.39;100.00;99735.31;5093229;28;20093;-45
2023/10/29 00:12:01;;;;;;;33.47;22.25;;;;;;;10.44;100.00;99737.69;5093229;28;20052;-45
2023/10/29 00:14:29;;;;;;;33.75;21.55;;;;;;;10.59;100.00;99741.97;5093305;28;20130;-45
2023/10/29 00:16:59;;;;;;;27.80;20.00;;;;;;;10.45;100.00;99734.06;5092927;28;20048;-46
2023/10/29 00:19:28;;;;;;;28.90;20.20;;;;;;;10.39;100.00;99729.16;5092865;28;20538;-45
2023/10/29 00:21:58;;;;;;;28.00;19.52;;;;;;;10.34;100.00;99736.63;5092401;28;20056;-42
2023/10/29 00:24:26;;;;;;;30.00;20.15;;;;;;;10.40;100.00;99725.50;5092313;28;20505;-45
2023/10/29 00:26:55;;;;;;;33.22;21.42;;;;;;;10.34;100.00;99725.94;5092451;28;20127;-44
2023/10/29 00:29:23;;;;;;;33.28;22.25;;;;;;;10.30;100.00;99726.13;5092438;28;20076;-44
2023/10/29 00:31:52;;;;;;;32.00;20.38;;;;;;;10.33;100.00;99733.09;5092272;28;20056;-44
2023/10/29 00:34:20;;;;;;;31.92;20.85;;;;;;;10.30;100.00;99736.81;5092430;28;20066;-44
2023/10/29 00:36:49;;;;;;;31.25;20.48;;;;;;;10.25;100.00;99730.94;5092522;28;20043;-45
2023/10/29 00:39:18;;;;;;;29.95;20.30;;;;;;;10.31;100.00;99732.31;5092403;28;20121;-46
2023/10/29 00:41:47;;;;;;;30.70;20.63;;;;;;;10.35;100.00;99743.66;5092245;28;20055;-44
2023/10/29 00:44:15;;;;;;;31.13;20.45;;;;;;;10.32;100.00;99736.69;5091920;28;20048;-44
2023/10/29 00:46:43;;;;;;;32.13;20.88;;;;;;;10.32;100.00;99740.22;5092189;28;20552;-45
2023/10/29 00:49:11;;;;;;;32.40;20.90;;;;;;;10.41;100.00;99727.22;5092217;28;20044;-45
2023/10/29 00:51:40;;;;;;;34.58;21.55;;;;;;;10.44;100.00;99729.69;5091967;28;20047;-44
2023/10/29 00:54:10;;;;;;;31.58;20.67;;;;;;;10.34;100.00;99716.13;5092869;28;20044;-45
2023/10/29 00:56:40;;;;;;;37.63;22.65;;;;;;;10.36;100.00;99726.69;5092873;28;20191;-45
2023/10/29 00:59:11;;;;;;;37.17;22.42;;;;;;;10.32;100.00;99729.53;5092658;28;20048;-44
2023/10/29 01:01:40;;;;;;;44.97;24.00;;;;;;;10.31;100.00;99722.50;5092547;28;20074;-43
2023/10/29 01:04:08;;;;;;;37.35;22.58;;;;;;;10.21;100.00;99710.72;5092362;28;20052;-44
2023/10/29 01:06:38;;;;;;;46.60;24.17;;;;;;;10.17;100.00;99714.56;5092878;28;20053;-45
2023/10/29 01:09:08;;;;;;;43.50;23.30;;;;;;;10.16;100.00;99718.19;5092778;28;20052;-44
2023/10/29 01:11:36;;;;;;;40.97;23.67;;;;;;;10.13;100.00;99721.03;5092231;28;20041;-44
2023/10/29 01:14:05;;;;;;;47.35;23.90;;;;;;;10.05;100.00;99726.06;5092187;28;20067;-45
2023/10/29 01:16:34;;;;;;;57.20;26.50;;;;;;;9.99;100.00;99726.44;5091924;28;20121;-46
2023/10/29 01:19:02;;;;;;;83.45;26.30;;;;;;;9.75;100.00;99737.75;5092408;28;20052;-44
2023/10/29 01:21:31;;;;;;;114.75;24.67;;;;;;;9.59;100.00;99744.16;5091936;28;20060;-44
2023/10/29 01:24:00;;;;;;;77.00;23.48;;;;;;;9.44;100.00;99740.66;5091778;28;20040;-47
2023/10/29 01:26:28;;;;;;;66.28;23.63;;;;;;;9.35;100.00;99741.25;5091451;28;20055;-44
2023/10/29 01:28:57;;;;;;;104.60;23.67;;;;;;;9.40;100.00;99745.34;5091547;28;20101;-44
2023/10/29 01:31:27;;;;;;;77.07;22.48;;;;;;;9.52;100.00;99743.69;5091753;28;20606;-45
2023/10/29 01:33:55;;;;;;;49.75;22.02;;;;;;;9.64;100.00;99742.91;5091470;28;20504;-48
2023/10/29 01:36:23;;;;;;;34.53;21.10;;;;;;;9.78;100.00;99733.19;5091393;28;20121;-44
2023/10/29 01:38:51;;;;;;;74.22;21.40;;;;;;;9.79;100.00;99734.88;5091468;28;20055;-44
2023/10/29 01:41:20;;;;;;;37.50;21.58;;;;;;;9.97;100.00;99744.34;5091606;28;20465;-45
2023/10/29 01:43:49;;;;;;;34.10;20.67;;;;;;;10.12;100.00;99743.31;5094453;28;20545;-43
2023/10/29 01:46:18;;;;;;;79.97;20.48;;;;;;;10.04;100.00;99743.00;5093891;28;20048;-45
2023/10/29 01:48:47;;;;;;;65.18;20.30;;;;;;;10.03;100.00;99754.59;5095705;28;20178;-45
2023/10/29 01:51:15;;;;;;;77.90;19.27;;;;;;;9.87;100.00;99748.56;5095406;28;20456;-44
2023/10/29 01:53:44;;;;;;;33.53;18.60;;;;;;;9.88;100.00;99739.63;5096067;28;20052;-44
2023/10/29 01:56:12;;;;;;;60.33;18.95;;;;;;;9.96;100.00;99743.50;5096674;28;20048;-45
2023/10/29 01:58:40;;;;;;;60.40;18.83;;;;;;;9.86;100.00;99734.41;5096386;28;20113;-45
2023/10/29 02:01:12;;;;;;;78.75;19.35;;;;;;;9.73;100.00;99742.31;5095699;28;20052;-44
2023/10/29 02:03:40;;;;;;;34.83;18.52;;;;;;;9.75;100.00;99751.09;5095641;28;20125;-45
2023/10/29 02:06:17;;;;;;;36.55;17.60;;;;;;;9.98;100.00;99759.38;5096109;28;20587;-44
2023/10/29 02:08:45;;;;;;;27.13;18.25;;;;;;;10.07;100.00;99764.09;5095327;28;20110;-44
2023/10/29 02:11:17;;;;;;;38.28;18.15;;;;;;;9.98;100.00;99759.38;5095462;28;20051;-44
2023/10/29 02:13:45;;;;;;;24.70;17.05;;;;;;;10.15;100.00;99763.59;5095216;28;20147;-45
2023/10/29 02:16:13;;;;;;;26.58;18.15;;;;;;;10.30;100.00;99759.94;5095545;28;20091;-44
2023/10/29 02:18:42;;;;;;;26.55;16.65;;;;;;;10.37;100.00;99763.06;5095259;28;20044;-44
2023/10/29 02:21:11;;;;;;;25.42;16.55;;;;;;;10.47;100.00;99765.00;5095158;28;20489;-44
2023/10/29 02:23:41;;;;;;;24.77;16.92;;;;;;;10.53;100.00;99763.75;5094845;28;20117;-44
2023/10/29 02:26:10;;;;;;;24.63;16.85;;;;;;;10.62;100.00;99767.59;5095236;28;20105;-44
2023/10/29 02:28:38;;;;;;;26.88;16.58;;;;;;;10.44;100.00;99777.69;5095468;28;20097;-44
2023/10/29 02:31:06;;;;;;;22.90;15.88;;;;;;;10.44;100.00;99765.22;5095365;28;20048;-45
2023/10/29 02:33:35;;;;;;;24.70;16.65;;;;;;;10.28;100.00;99770.72;5094843;28;20044;-46
2023/10/29 02:36:04;;;;;;;30.52;18.38;;;;;;;10.30;100.00;99760.78;5094989;28;20595;-44
2023/10/29 02:38:32;;;;;;;25.85;17.25;;;;;;;10.38;100.00;99764.75;5094924;28;20108;-46
2023/10/29 02:41:02;;;;;;;29.60;17.25;;;;;;;10.38;100.00;99751.44;5094774;28;20097;-46
2023/10/29 02:43:31;;;;;;;27.25;17.85;;;;;;;10.18;100.00;99752.72;5094924;28;20051;-44
2023/10/29 02:45:59;;;;;;;27.77;17.65;;;;;;;10.30;100.00;99752.78;5094784;28;20097;-45
2023/10/29 02:48:28;;;;;;;28.67;17.88;;;;;;;10.26;100.00;99764.63;5094962;28;20047;-45
2023/10/29 02:50:56;;;;;;;28.50;18.67;;;;;;;10.15;100.00;99759.13;5094871;28;20048;-44
2023/10/29 02:53:25;;;;;;;26.80;17.75;;;;;;;10.29;100.00;99758.22;5094993;28;20040;-43
2023/10/29 02:55:53;;;;;;;28.15;17.67;;;;;;;10.42;100.00;99760.91;5094612;28;20048;-45
2023/10/29 02:58:23;;;;;;;29.90;18.10;;;;;;;10.50;100.00;99763.94;5094771;28;20132;-44
2023/10/29 03:00:53;;;;;;;32.95;18.08;;;;;;;10.47;100.00;99759.66;5094264;28;20439;-45
2023/10/29 03:03:21;;;;;;;37.35;17.52;;;;;;;10.21;100.00;99757.84;5094436;28;20131;-45
2023/10/29 03:05:50;;;;;;;30.10;17.98;;;;;;;10.09;100.00;99759.53;5095123;28;20052;-45
2023/10/29 03:08:24;;;;;;;28.98;18.40;;;;;;;10.18;100.00;99760.72;5094574;28;20044;-47
2023/10/29 03:10:53;;;;;;;28.15;18.45;;;;;;;10.36;100.00;99766.69;5094761;28;20044;-46
2023/10/29 03:13:22;;;;;;;27.02;17.75;;;;;;;10.42;100.00;99761.81;5094661;28;20054;-46
2023/10/29 03:15:51;;;;;;;23.85;16.42;;;;;;;10.48;100.00;99765.84;5094051;28;20055;-44
2023/10/29 03:18:21;;;;;;;25.95;15.95;;;;;;;10.43;100.00;99768.00;5094063;28;20429;-45
2023/10/29 03:20:49;;;;;;;27.02;16.98;;;;;;;10.32;100.00;99771.34;5094396;28;20189;-44
2023/10/29 03:23:18;;;;;;;28.33;16.13;;;;;;;10.14;100.00;99768.09;5094618;28;20051;-46
2023/10/29 03:25:47;;;;;;;29.58;17.80;;;;;;;9.97;100.00;99765.66;5094566;28;20136;-44
2023/10/29 03:28:15;;;;;;;28.98;18.08;;;;;;;10.12;100.00;99775.31;5094336;28;20427;-45
2023/10/29 03:30:45;;;;;;;26.63;17.33;;;;;;;9.92;100.00;99775.75;5094068;28;20047;-45
2023/10/29 03:33:14;;;;;;;29.33;17.42;;;;;;;9.94;100.00;99769.38;5094001;28;20043;-45
2023/10/29 03:35:42;;;;;;;29.85;17.95;;;;;;;10.11;100.00;99775.41;5094181;28;20452;-44
2023/10/29 03:38:10;;;;;;;27.23;17.30;;;;;;;10.21;100.00;99766.69;5094212;28;20044;-45
2023/10/29 03:40:39;;;;;;;23.45;15.95;;;;;;;10.26;100.00;99761.09;5094234;28;20508;-45
2023/10/29 03:43:08;;;;;;;23.75;16.20;;;;;;;10.21;100.00;99761.38;5094322;28;20083;-45
2023/10/29 03:45:36;;;;;;;23.15;16.38;;;;;;;10.22;100.00;99759.59;5094220;28;20052;-46
2023/10/29 03:48:08;;;;;;;23.60;15.55;;;;;;;10.24;100.00;99763.88;5094311;28;20048;-46
2023/10/29 03:50:36;;;;;;;23.88;16.25;;;;;;;10.24;100.00;99763.03;5094166;28;20044;-45
2023/10/29 03:53:05;;;;;;;24.08;15.98;;;;;;;10.28;100.00;99761.84;5093874;28;20081;-46
2023/10/29 03:55:33;;;;;;;21.33;15.10;;;;;;;10.27;100.00;99758.34;5093427;28;20489;-45
2023/10/29 03:58:01;;;;;;;22.40;15.73;;;;;;;10.26;100.00;99756.63;5093161;28;20161;-47
2023/10/29 04:00:30;;;;;;;21.48;15.52;;;;;;;10.26;100.00;99761.09;5091739;28;20071;-44
2023/10/29 04:02:58;;;;;;;23.05;15.52;;;;;;;10.22;100.00;99763.09;5093185;28;20044;-45
2023/10/29 04:05:28;;;;;;;22.75;15.60;;;;;;;10.25;100.00;99756.75;5092650;28;20165;-46
2023/10/29 04:07:56;;;;;;;22.65;15.70;;;;;;;10.27;100.00;99746.81;5093560;28;20109;-45
2023/10/29 04:10:27;;;;;;;21.88;15.20;;;;;;;10.20;100.00;99751.66;5092856;28;20048;-46
2023/10/29 04:12:57;;;;;;;20.42;14.60;;;;;;;10.21;100.00;99755.19;5092718;28;20101;-46
2023/10/29 04:15:25;;;;;;;24.08;14.82;;;;;;;9.98;100.00;99754.91;5093065;28;20094;-46
2023/10/29 04:17:54;;;;;;;20.95;15.23;;;;;;;10.03;100.00;99759.91;5092739;28;20048;-43
2023/10/29 04:20:23;;;;;;;21.27;15.10;;;;;;;10.07;100.00;99761.44;5093174;28;20048;-45
2023/10/29 04:22:53;;;;;;;20.30;14.50;;;;;;;9.85;100.00;99766.47;5092611;28;20059;-45
2023/10/29 04:25:21;;;;;;;22.10;15.20;;;;;;;9.84;100.00;99764.72;5093191;28;20048;-45
2023/10/29 04:27:49;;;;;;;22.23;15.60;;;;;;;9.83;100.00;99773.69;5092795;28;20489;-45
2023/10/29 04:30:18;;;;;;;21.58;15.43;;;;;;;9.91;100.00;99771.38;5093532;28;20394;-45
2023/10/29 04:32:48;;;;;;;20.35;14.82;;;;;;;9.93;100.00;99761.47;5093269;28;20129;-46
2023/10/29 04:35:17;;;;;;;20.08;14.68;;;;;;;10.01;100.00;99767.16;5092842;28;20526;-45
2023/10/29 04:37:45;;;;;;;20.10;15.10;;;;;;;10.12;100.00;99769.97;5092929;28;20051;-46
2023/10/29 04:40:15;;;;;;;22.13;15.18;;;;;;;10.04;100.00;99764.31;5093241;28;20054;-45
2023/10/29 04:42:43;;;;;;;22.42;15.63;;;;;;;9.78;100.00;99759.81;5092463;28;20517;-45
2023/10/29 04:45:12;;;;;;;22.48;15.50;;;;;;;9.81;100.00;99767.59;5092796;28;20127;-44
2023/10/29 04:47:40;;;;;;;24.95;16.30;;;;;;;9.64;100.00;99764.22;5092122;28;20087;-45
2023/10/29 04:50:10;;;;;;;24.35;15.98;;;;;;;9.43;100.00;99754.94;5092482;28;20059;-45
2023/10/29 04:52:38;;;;;;;23.15;15.63;;;;;;;9.44;100.00;99757.50;5092341;28;20413;-44
2023/10/29 04:55:07;;;;;;;22.85;15.45;;;;;;;9.52;100.00;99765.00;5091798;28;20453;-47
2023/10/29 04:57:37;;;;;;;21.75;15.02;;;;;;;9.66;100.00;99769.47;5092096;28;20413;-45
2023/10/29 05:00:07;;;;;;;22.67;14.98;;;;;;;9.74;100.00;99773.31;5092105;28;20361;-44
2023/10/29 05:02:36;;;;;;;22.25;15.57;;;;;;;9.83;100.00;99773.69;5092026;28;20063;-44
2023/10/29 05:05:06;;;;;;;21.48;15.00;;;;;;;9.56;100.00;99769.19;5092570;28;20089;-44
2023/10/29 05:07:35;;;;;;;24.23;15.65;;;;;;;9.24;100.00;99771.19;5082443;28;20051;-45
2023/10/29 05:10:04;;;;;;;22.63;14.80;;;;;;;9.36;100.00;99774.88;5088423;28;20517;-45
2023/10/29 05:12:32;;;;;;;22.60;15.25;;;;;;;9.32;100.00;99765.41;5092010;28;20048;-43
2023/10/29 05:15:02;;;;;;;23.00;15.05;;;;;;;9.37;100.00;99760.66;5084960;28;20049;-44
2023/10/29 05:17:30;;;;;;;21.15;14.73;;;;;;;9.39;100.00;99774.72;5072980;28;20408;-44
2023/10/29 05:19:59;;;;;;;21.38;14.90;;;;;;;9.13;100.00;99777.19;5076243;28;20443;-45
2023/10/29 05:22:27;;;;;;;20.48;15.20;;;;;;;9.19;100.00;99783.94;5075772;28;20049;-43
2023/10/29 05:24:56;;;;;;;20.40;14.60;;;;;;;9.04;100.00;99777.75;5081565;28;20048;-43
2023/10/29 05:27:24;;;;;;;20.63;14.75;;;;;;;9.02;100.00;99790.28;5096143;28;20052;-44
2023/10/29 05:29:52;;;;;;;23.38;16.05;;;;;;;9.20;100.00;99788.31;5095872;28;20048;-44
2023/10/29 05:32:22;;;;;;;19.75;13.95;;;;;;;9.37;100.00;99790.78;5095978;28;20484;-42
2023/10/29 05:34:50;;;;;;;19.52;14.27;;;;;;;9.48;100.00;99790.13;5096556;28;20048;-45
2023/10/29 05:37:19;;;;;;;23.33;15.02;;;;;;;9.51;100.00;99789.91;5096296;28;20048;-49
2023/10/29 05:39:47;;;;;;;20.17;14.38;;;;;;;9.24;100.00;99792.50;5096494;28;20047;-45
2023/10/29 05:42:15;;;;;;;23.88;15.40;;;;;;;9.07;100.00;99796.22;5097040;28;20055;-44
2023/10/29 05:44:44;;;;;;;21.55;14.95;;;;;;;9.19;100.00;99794.59;5096830;28;20059;-44
2023/10/29 05:47:12;;;;;;;21.15;13.85;;;;;;;9.26;100.00;99806.53;5081566;28;20075;-52
2023/10/29 05:49:42;;;;;;;19.55;14.45;;;;;;;9.15;100.00;99801.03;5075520;28;20079;-46
2023/10/29 05:52:10;;;;;;;22.00;14.38;;;;;;;9.34;100.00;99806.94;5076115;28;20056;-44
2023/10/29 05:54:39;;;;;;;20.80;14.30;;;;;;;9.29;100.00;99803.72;5075641;28;20040;-45
2023/10/29 05:57:07;;;;;;;21.13;14.48;;;;;;;9.30;100.00;99807.22;5077465;28;20055;-45
2023/10/29 05:59:36;;;;;;;20.20;14.27;;;;;;;9.26;100.00;99795.03;5077331;28;20045;-45
2023/10/29 06:02:04;;;;;;;21.80;15.18;;;;;;;9.32;100.00;99805.31;5076796;28;20049;-44
2023/10/29 06:04:33;;;;;;;20.20;14.55;;;;;;;9.49;100.00;99812.28;5076421;28;20044;-44
2023/10/29 06:07:03;;;;;;;21.00;15.13;;;;;;;9.66;100.00;99810.25;5075559;28;20481;-45
2023/10/29 06:09:31;;;;;;;20.33;14.45;;;;;;;9.79;100.00;99809.47;5074530;28;20053;-44
2023/10/29 06:12:00;;;;;;;22.52;15.82;;;;;;;9.44;100.00;99809.88;5074833;28;20092;-45
2023/10/29 06:14:28;;;;;;;20.55;15.25;;;;;;;9.37;100.00;99813.91;5074646;28;20045;-45
2023/10/29 06:16:57;;;;;;;23.63;15.00;;;;;;;9.32;100.00;99818.63;5074482;28;20090;-45
2023/10/29 06:19:39;;;;;;;20.50;14.43;;;;;;;9.29;100.00;99833.00;5074258;28;20451;-44
2023/10/29 06:22:10;;;;;;;21.23;14.20;;;;;;;9.28;100.00;99827.78;5074167;28;20048;-50
2023/10/29 06:24:38;;;;;;;19.48;14.18;;;;;;;9.35;100.00;99829.09;5094485;28;20044;-43
2023/10/29 06:27:07;;;;;;;17.73;13.00;;;;;;;9.44;100.00;99839.16;5094780;28;20040;-43
2023/10/29 06:29:38;;;;;;;18.38;13.07;;;;;;;9.48;100.00;99840.69;5094544;28;20044;-43
2023/10/29 06:32:07;;;;;;;19.02;13.15;;;;;;;9.31;100.00;99843.53;5094264;28;20044;-44
2023/10/29 06:34:35;;;;;;;19.35;13.82;;;;;;;9.30;100.00;99850.66;5094854;28;20048;-43
2023/10/29 06:37:04;;;;;;;18.77;13.52;;;;;;;9.28;100.00;99841.06;5094761;28;20437;-42
2023/10/29 06:39:33;;;;;;;25.77;16.38;;;;;;;9.31;100.00;99840.88;5094476;28;20124;-45
2023/10/29 06:42:03;;;;;;;22.83;14.52;;;;;;;9.39;100.00;99838.59;5094511;28;20048;-43
2023/10/29 06:44:32;;;;;;;20.88;14.45;;;;;;;9.45;100.00;99844.38;5094225;28;20044;-43
2023/10/29 06:47:00;;;;;;;26.67;16.33;;;;;;;9.20;100.00;99841.53;5094027;28;20044;-43
2023/10/29 06:49:29;;;;;;;23.27;15.27;;;;;;;9.27;100.00;99850.00;5093942;28;20143;-45
2023/10/29 06:51:58;;;;;;;22.23;14.95;;;;;;;9.18;100.00;99854.94;5093592;28;20047;-43
2023/10/29 06:54:27;;;;;;;23.35;16.02;;;;;;;9.42;100.00;99855.22;5093849;28;20090;-43
2023/10/29 06:57:00;;;;;;;22.23;14.75;;;;;;;9.65;100.00;99858.25;5093840;28;20094;-43
2023/10/29 06:59:33;;;;;;;20.80;14.73;;;;;;;9.72;100.00;99863.13;5093374;28;20143;-43
2023/10/29 07:02:01;;;;;;;21.95;14.98;;;;;;;9.92;100.00;99869.00;5093670;28;20080;-43
2023/10/29 07:04:29;;;;;;;22.00;15.10;;;;;;;10.07;100.00;99870.69;5093930;28;20147;-44
2023/10/29 07:07:02;;;;;;;23.25;16.02;;;;;;;10.10;100.00;99866.97;5094206;28;20048;-44
2023/10/29 07:09:32;;;;;;;21.27;15.25;;;;;;;10.25;100.00;99866.88;5093499;28;20457;-44
2023/10/29 07:12:03;;;;;;;22.55;15.82;;;;;;;10.38;100.00;99868.75;5091435;28;20134;-45
2023/10/29 07:14:32;;;;;;;21.95;15.68;;;;;;;10.56;100.00;99867.53;5093532;28;20040;-43
2023/10/29 07:17:02;;;;;;;20.90;14.68;;;;;;;10.82;100.00;99866.66;5093690;28;20068;-42
2023/10/29 07:19:30;;;;;;;21.65;14.93;;;;;;;11.04;100.00;99873.22;5090864;28;20040;-43
2023/10/29 07:21:59;;;;;;;19.58;14.82;;;;;;;11.11;100.00;99871.84;5092838;28;20056;-44
2023/10/29 07:24:27;;;;;;;22.60;15.43;;;;;;;11.02;100.00;99861.78;5093286;28;20420;-44
2023/10/29 07:26:56;;;;;;;20.58;14.38;;;;;;;11.13;100.00;99861.91;5092063;28;20521;-45
2023/10/29 07:29:25;;;;;;;19.55;14.18;;;;;;;11.19;100.00;99858.78;5093666;28;20565;-44
2023/10/29 07:31:54;;;;;;;18.60;14.40;;;;;;;11.29;100.00;99853.66;5092677;28;20044;-44
2023/10/29 07:34:23;;;;;;;19.55;14.55;;;;;;;11.24;100.00;99856.66;5093267;28;20048;-44
2023/10/29 07:36:51;;;;;;;20.20;14.82;;;;;;;11.36;100.00;99861.16;5093157;28;20046;-44
2023/10/29 07:39:24;;;;;;;21.02;14.57;;;;;;;11.52;100.00;99855.59;5093011;28;20055;-44
2023/10/29 07:41:53;;;;;;;18.52;14.13;;;;;;;11.49;100.00;99853.16;5093075;28;20036;-45
2023/10/29 07:44:24;;;;;;;20.52;13.25;;;;;;;11.52;100.00;99847.59;5094410;28;20044;-45
2023/10/29 07:46:54;;;;;;;18.75;12.68;;;;;;;11.67;100.00;99842.97;5093469;28;20044;-48
2023/10/29 07:49:25;;;;;;;19.40;13.27;;;;;;;11.72;100.00;99851.53;5093149;28;20385;-44
2023/10/29 07:51:53;;;;;;;18.80;13.05;;;;;;;11.83;100.00;99848.97;5093799;28;20412;-44
2023/10/29 07:54:21;;;;;;;18.08;13.57;;;;;;;12.07;100.00;99841.00;5093925;28;20048;-44
2023/10/29 07:56:57;;;;;;;14.75;12.23;;;;;;;12.04;100.00;99851.91;5093744;28;20119;-44
2023/10/29 07:59:26;;;;;;;17.23;12.75;;;;;;;11.92;100.00;99842.97;5093952;28;20074;-44
2023/10/29 08:01:56;;;;;;;16.10;12.77;;;;;;;12.11;100.00;99852.31;5091219;28;20040;-43
2023/10/29 08:04:27;;;;;;;19.13;12.93;;;;;;;12.21;100.00;99848.88;5090955;28;20119;-43
2023/10/29 08:06:55;;;;;;;17.70;13.07;;;;;;;12.32;100.00;99851.59;5092127;28;20044;-44
2023/10/29 08:09:24;;;;;;;16.38;12.98;;;;;;;12.42;100.00;99851.78;5091995;28;20055;-43
2023/10/29 08:11:52;;;;;;;17.55;11.82;;;;;;;12.49;100.00;99844.16;5092230;28;20044;-44
2023/10/29 08:14:20;;;;;;;18.35;12.07;;;;;;;12.70;100.00;99849.72;5092377;28;20052;-43
2023/10/29 08:16:49;;;;;;;17.50;12.43;;;;;;;12.87;100.00;99849.31;5091252;28;20036;-43
2023/10/29 08:19:19;;;;;;;20.52;12.90;;;;;;;12.97;100.00;99855.66;5092546;28;20048;-44
2023/10/29 08:21:47;;;;;;;16.35;12.25;;;;;;;13.10;100.00;99843.03;5089407;28;20048;-44
2023/10/29 08:24:15;;;;;;;16.67;11.48;;;;;;;13.16;100.00;99858.63;5093082;28;20051;-45
2023/10/29 08:26:46;;;;;;;17.38;12.02;;;;;;;13.12;100.00;99857.19;5092804;28;20044;-44
2023/10/29 08:29:18;;;;;;;16.90;11.45;;;;;;;13.15;100.00;99856.94;5092813;28;20051;-45
2023/10/29 08:31:47;;;;;;;14.20;11.40;;;;;;;13.37;100.00;99861.50;5092524;28;20150;-44
2023/10/29 08:34:15;;;;;;;17.40;11.80;;;;;;;13.60;100.00;99857.00;5092214;28;20044;-44
2023/10/29 08:36:45;;;;;;;16.98;10.43;;;;;;;13.61;100.00;99856.06;5091342;28;20536;-44
2023/10/29 08:39:16;;;;;;;16.13;10.00;;;;;;;13.82;100.00;99856.19;5091279;28;20063;-43
2023/10/29 08:41:44;;;;;;;15.50;9.85;;;;;;;13.85;100.00;99847.03;5092395;28;20059;-44
2023/10/29 08:44:12;;;;;;;13.50;9.73;;;;;;;13.97;100.00;99854.09;5092809;28;20053;-45
2023/10/29 08:46:41;;;;;;;13.80;9.13;;;;;;;14.00;100.00;99848.50;5092469;28;20105;-44
2023/10/29 08:49:11;;;;;;;15.07;9.93;;;;;;;14.00;100.00;99843.13;5092257;28;20055;-44
2023/10/29 08:51:40;;;;;;;14.15;8.65;;;;;;;14.09;100.00;99850.44;5092241;28;20063;-44
2023/10/29 08:54:10;;;;;;;13.55;7.70;;;;;;;14.19;100.00;99853.22;5092429;28;20124;-44
2023/10/29 08:56:38;;;;;;;11.88;6.85;;;;;;;14.17;100.00;99856.00;5092187;28;20040;-45
2023/10/29 08:59:09;;;;;;;14.73;6.90;;;;;;;14.34;100.00;99849.28;5092676;28;20101;-44
2023/10/29 09:01:37;;;;;;;10.45;6.18;;;;;;;14.46;100.00;99852.81;5092595;28;20354;-43
2023/10/29 09:04:10;;;;;;;12.00;6.57;;;;;;;14.54;100.00;99836.91;5092552;28;20450;-45
2023/10/29 09:06:38;;;;;;;11.63;6.40;;;;;;;14.69;100.00;99843.72;5092348;28;20097;-45
2023/10/29 09:09:06;;;;;;;12.65;6.72;;;;;;;14.77;100.00;99843.91;5091650;28;20471;-45
2023/10/29 09:11:36;;;;;;;9.90;6.22;;;;;;;14.86;100.00;99844.94;5092538;28;20060;-44
2023/10/29 09:14:07;;;;;;;9.82;5.60;;;;;;;15.02;100.00;99841.81;5092979;28;20417;-45
2023/10/29 09:16:35;;;;;;;9.85;6.15;;;;;;;15.16;100.00;99845.06;5092027;28;20078;-42
2023/10/29 09:19:06;;;;;;;9.00;5.57;;;;;;;15.29;100.00;99838.63;5092042;28;20056;-43
2023/10/29 09:21:36;;;;;;;9.13;5.35;;;;;;;15.34;100.00;99839.91;5091108;28;20046;-45
2023/10/29 09:24:06;;;;;;;10.05;5.63;;;;;;;15.34;100.00;99834.53;5091351;28;20040;-45
2023/10/29 09:26:37;;;;;;;10.30;6.40;;;;;;;15.47;100.00;99837.03;5089514;28;20048;-43
2023/10/29 09:29:08;;;;;;;13.88;6.55;;;;;;;15.52;100.00;99834.78;5090065;28;20126;-44
2023/10/29 09:31:36;;;;;;;10.68;6.45;;;;;;;15.57;100.00;99840.63;5090203;28;20044;-45
2023/10/29 09:34:11;;;;;;;13.25;6.20;;;;;;;15.63;100.00;99831.19;5090437;28;20435;-44
2023/10/29 09:36:43;;;;;;;14.07;6.90;;;;;;;15.71;100.00;99834.06;5091094;28;20083;-45
2023/10/29 09:39:12;;;;;;;11.70;6.05;;;;;;;15.77;100.00;99832.66;5091088;28;20385;-44
2023/10/29 09:41:44;;;;;;;9.95;4.90;;;;;;;15.88;100.00;99825.34;5090866;28;20048;-46
2023/10/29 09:44:23;;;;;;;12.27;4.63;;;;;;;16.05;100.00;99828.38;5090128;28;20052;-44
2023/10/29 09:46:58;;;;;;;8.38;4.60;;;;;;;16.06;100.00;99827.38;5091084;28;20105;-44
2023/10/29 09:49:29;;;;;;;11.77;4.53;;;;;;;15.97;100.00;99824.53;5090992;28;20493;-43
2023/10/29 09:51:58;;;;;;;10.48;4.60;;;;;;;16.07;100.00;99816.50;5091471;28;20106;-45
2023/10/29 09:54:27;;;;;;;8.63;4.72;;;;;;;16.10;100.00;99818.88;5091289;28;20473;-44
2023/10/29 09:56:56;;;;;;;8.38;4.13;;;;;;;16.33;100.00;99813.28;5091780;28;20118;-45
2023/10/29 09:59:26;;;;;;;8.15;4.07;;;;;;;16.43;100.00;99814.16;5091432;28;20204;-46
2023/10/29 10:01:54;;;;;;;10.82;4.43;;;;;;;16.50;100.00;99810.75;5091819;28;20044;-44
2023/10/29 10:04:26;;;;;;;12.05;4.13;;;;;;;16.57;100.00;99814.56;5094045;28;20178;-44
2023/10/29 10:06:58;;;;;;;12.48;4.10;;;;;;;16.65;100.00;99813.03;5095228;28;20082;-44
2023/10/29 10:09:28;;;;;;;9.88;3.83;;;;;;;16.66;100.00;99799.41;5095331;28;20066;-45
2023/10/29 10:12:05;;;;;;;9.48;3.92;;;;;;;16.78;100.00;99797.44;5094725;28;20512;-45
2023/10/29 10:14:32;;;;;;;8.48;3.30;;;;;;;16.86;100.00;99794.91;5095104;28;20040;-44
2023/10/29 10:17:09;;;;;;;6.88;3.58;;;;;;;16.99;100.00;99791.91;5094728;28;20081;-44
2023/10/29 10:19:41;;;;;;;9.27;3.05;;;;;;;17.06;100.00;99793.88;5093517;28;20056;-45
2023/10/29 10:22:12;;;;;;;7.68;2.80;;;;;;;17.12;100.00;99790.59;5094588;28;20048;-44
2023/10/29 10:24:43;;;;;;;6.53;3.10;;;;;;;17.23;100.00;99791.44;5095316;28;20044;-44
2023/10/29 10:27:18;;;;;;;6.65;3.33;;;;;;;17.30;100.00;99792.56;5095399;28;20040;-44
2023/10/29 10:29:49;;;;;;;6.78;3.35;;;;;;;17.31;100.00;99786.16;5094600;28;20465;-44
2023/10/29 10:32:23;;;;;;;8.57;2.95;;;;;;;17.37;100.00;99778.34;5094419;28;20052;-45
2023/10/29 10:34:52;;;;;;;8.63;3.13;;;;;;;17.44;100.00;99783.97;5093980;28;20538;-45
2023/10/29 10:37:24;;;;;;;7.63;2.80;;;;;;;17.59;100.00;99771.72;5094512;28;20098;-46
2023/10/29 10:39:52;;;;;;;9.65;3.40;;;;;;;17.68;100.00;99764.59;5094792;28;20135;-45
2023/10/29 10:42:26;;;;;;;5.53;2.75;;;;;;;17.65;100.00;99760.31;5094684;28;20048;-46
2023/10/29 10:44:58;;;;;;;7.28;2.78;;;;;;;17.74;100.00;99764.00;5094965;28;20559;-43
2023/10/29 10:47:28;;;;;;;9.02;2.95;;;;;;;17.76;100.00;99753.94;5094955;28;20044;-44
2023/10/29 10:49:57;;;;;;;6.68;2.45;;;;;;;17.82;100.00;99753.31;5094492;28;20048;-46
2023/10/29 10:52:28;;;;;;;6.03;2.10;;;;;;;17.88;100.00;99760.81;5094608;28;20304;-46
2023/10/29 10:54:59;;;;;;;7.43;2.63;;;;;;;17.98;100.00;99761.63;5094711;28;20461;-46
2023/10/29 10:57:32;;;;;;;7.20;2.20;;;;;;;17.95;100.00;99761.94;5094117;28;20417;-46
2023/10/29 11:00:05;;;;;;;8.88;1.90;;;;;;;18.12;100.00;99757.53;5094293;28;20129;-43
2023/10/29 11:02:35;;;;;;;7.65;1.83;;;;;;;18.27;100.00;99761.41;5094298;28;20048;-44
2023/10/29 11:05:05;;;;;;;4.53;1.55;;;;;;;18.38;100.00;99749.53;5094360;28;20840;-45
2023/10/29 11:07:37;;;;;;;5.75;1.65;;;;;;;18.44;100.00;99750.78;5094451;28;20090;-45
2023/10/29 11:10:08;;;;;;;5.47;2.10;;;;;;;18.38;100.00;99740.59;5093770;28;20048;-46
2023/10/29 11:12:38;;;;;;;6.72;2.00;;;;;;;18.46;100.00;99737.97;5093843;28;20051;-45
2023/10/29 11:15:19;;;;;;;8.93;2.00;;;;;;;18.58;100.00;99732.16;5092445;28;20051;-45
2023/10/29 11:17:52;;;;;;;4.78;1.45;;;;;;;18.77;100.00;99741.97;5093623;28;20139;-46
2023/10/29 11:20:41;;;;;;;;;;;;;;;18.69;100.00;99733.81;5093168;28;20047;-46
2023/10/29 11:23:10;;;;;;;7.25;2.00;;;;;;;18.65;100.00;99745.94;5093571;28;20558;-45
2023/10/29 11:25:40;;;;;;;6.22;1.52;;;;;;;18.69;100.00;99733.81;5093606;28;20131;-43